sensor_id;sensor_type;location;lat;lon;timestamp;P1;durP1;ratioP1;P2;durP2;ratioP2
76550;SDS011;65393;53.160;18.170;2023-03-01T00:01:11;48.10;;;16.80;;
76550;SDS011;65393;53.160;18.170;2023-03-01T00:03:40;51.80;;;19.10;;
76550;SDS011;65393;53.160;18.170;2023-03-01T00:06:08;37.00;;;14.40;;
76550;SDS011;65393;53.160;18.170;2023-03-01T00:08:35;58.00;;;20.40;;
76550;SDS011;65393;53.160;18.170;2023-03-01T00:13:34;45.30;;;16.80;;
76550;SDS011;65393;53.160;18.170;2023-03-01T00:16:05;52.70;;;19.00;;
76550;SDS011;65393;53.160;18.170;2023-03-01T00:18:33;45.30;;;19.00;;
76550;SDS011;65393;53.160;18.170;2023-03-01T00:21:01;41.90;;;16.00;;
76550;SDS011;65393;53.160;18.170;2023-03-01T00:23:27;40.40;;;15.40;;
76550;SDS011;65393;53.160;18.170;2023-03-01T00:25:55;58.90;;;21.00;;
76550;SDS011;65393;53.160;18.170;2023-03-01T00:28:21;48.90;;;17.80;;
76550;SDS011;65393;53.160;18.170;2023-03-01T00:30:48;41.40;;;15.60;;
76550;SDS011;65393;53.160;18.170;2023-03-01T00:33:15;47.60;;;15.70;;
76550;SDS011;65393;53.160;18.170;2023-03-01T00:35:42;47.20;;;17.70;;
76550;SDS011;65393;53.160;18.170;2023-03-01T00:38:09;45.20;;;16.00;;
76550;SDS011;65393;53.160;18.170;2023-03-01T00:40:36;50.50;;;19.40;;
76550;SDS011;65393;53.160;18.170;2023-03-01T00:43:03;48.90;;;18.50;;
76550;SDS011;65393;53.160;18.170;2023-03-01T00:45:30;48.70;;;18.40;;
76550;SDS011;65393;53.160;18.170;2023-03-01T00:47:59;41.60;;;16.40;;
76550;SDS011;65393;53.160;18.170;2023-03-01T00:50:26;50.80;;;17.70;;
76550;SDS011;65393;53.160;18.170;2023-03-01T00:52:53;46.70;;;18.40;;
76550;SDS011;65393;53.160;18.170;2023-03-01T00:55:22;49.10;;;14.90;;
76550;SDS011;65393;53.160;18.170;2023-03-01T00:57:50;35.30;;;13.80;;
76550;SDS011;65393;53.160;18.170;2023-03-01T01:00:17;44.00;;;15.80;;
76550;SDS011;65393;53.160;18.170;2023-03-01T01:02:48;47.20;;;17.30;;
76550;SDS011;65393;53.160;18.170;2023-03-01T01:05:15;46.80;;;18.90;;
76550;SDS011;65393;53.160;18.170;2023-03-01T01:07:47;47.30;;;18.90;;
76550;SDS011;65393;53.160;18.170;2023-03-01T01:10:15;47.40;;;17.10;;
76550;SDS011;65393;53.160;18.170;2023-03-01T01:12:44;41.50;;;16.70;;
76550;SDS011;65393;53.160;18.170;2023-03-01T01:15:12;43.00;;;16.70;;
76550;SDS011;65393;53.160;18.170;2023-03-01T01:17:40;45.40;;;16.80;;
76550;SDS011;65393;53.160;18.170;2023-03-01T01:20:07;47.40;;;18.00;;
76550;SDS011;65393;53.160;18.170;2023-03-01T01:22:35;40.80;;;16.40;;
76550;SDS011;65393;53.160;18.170;2023-03-01T01:25:02;40.20;;;16.40;;
76550;SDS011;65393;53.160;18.170;2023-03-01T01:27:29;42.30;;;15.90;;
76550;SDS011;65393;53.160;18.170;2023-03-01T01:29:56;50.60;;;17.20;;
76550;SDS011;65393;53.160;18.170;2023-03-01T01:32:23;37.20;;;13.60;;
76550;SDS011;65393;53.160;18.170;2023-03-01T01:34:50;36.90;;;12.30;;
76550;SDS011;65393;53.160;18.170;2023-03-01T01:37:16;39.60;;;15.90;;
76550;SDS011;65393;53.160;18.170;2023-03-01T01:39:43;38.90;;;14.60;;
76550;SDS011;65393;53.160;18.170;2023-03-01T01:42:16;43.80;;;16.10;;
76550;SDS011;65393;53.160;18.170;2023-03-01T01:44:46;37.00;;;13.90;;
76550;SDS011;65393;53.160;18.170;2023-03-01T01:47:14;41.20;;;14.10;;
76550;SDS011;65393;53.160;18.170;2023-03-01T01:49:51;38.00;;;13.70;;
76550;SDS011;65393;53.160;18.170;2023-03-01T01:52:24;32.10;;;11.60;;
76550;SDS011;65393;53.160;18.170;2023-03-01T01:54:54;43.40;;;13.90;;
76550;SDS011;65393;53.160;18.170;2023-03-01T01:57:27;37.60;;;14.00;;
76550;SDS011;65393;53.160;18.170;2023-03-01T02:00:00;36.80;;;15.40;;
76550;SDS011;65393;53.160;18.170;2023-03-01T02:02:39;43.40;;;14.70;;
76550;SDS011;65393;53.160;18.170;2023-03-01T02:05:11;38.90;;;14.70;;
76550;SDS011;65393;53.160;18.170;2023-03-01T02:07:47;32.40;;;12.80;;
76550;SDS011;65393;53.160;18.170;2023-03-01T02:10:20;37.00;;;15.20;;
76550;SDS011;65393;53.160;18.170;2023-03-01T02:12:48;35.60;;;12.10;;
76550;SDS011;65393;53.160;18.170;2023-03-01T02:15:15;37.90;;;16.00;;
76550;SDS011;65393;53.160;18.170;2023-03-01T02:17:42;38.30;;;14.30;;
76550;SDS011;65393;53.160;18.170;2023-03-01T02:23:15;39.00;;;13.80;;
76550;SDS011;65393;53.160;18.170;2023-03-01T02:30:46;36.10;;;14.40;;
76550;SDS011;65393;53.160;18.170;2023-03-01T02:33:34;37.70;;;15.30;;
76550;SDS011;65393;53.160;18.170;2023-03-01T02:36:03;35.70;;;14.60;;
76550;SDS011;65393;53.160;18.170;2023-03-01T02:38:33;29.80;;;9.20;;
76550;SDS011;65393;53.160;18.170;2023-03-01T02:41:00;36.60;;;13.80;;
76550;SDS011;65393;53.160;18.170;2023-03-01T02:43:31;31.40;;;12.40;;
76550;SDS011;65393;53.160;18.170;2023-03-01T02:46:02;35.20;;;13.50;;
76550;SDS011;65393;53.160;18.170;2023-03-01T02:48:45;37.20;;;13.40;;
76550;SDS011;65393;53.160;18.170;2023-03-01T02:51:26;32.70;;;12.60;;
76550;SDS011;65393;53.160;18.170;2023-03-01T02:56:27;29.50;;;10.80;;
76550;SDS011;65393;53.160;18.170;2023-03-01T02:58:56;37.80;;;13.70;;
76550;SDS011;65393;53.160;18.170;2023-03-01T03:01:27;37.90;;;14.10;;
76550;SDS011;65393;53.160;18.170;2023-03-01T03:04:08;33.60;;;12.70;;
76550;SDS011;65393;53.160;18.170;2023-03-01T03:06:37;35.60;;;12.80;;
76550;SDS011;65393;53.160;18.170;2023-03-01T03:09:04;31.60;;;11.50;;
76550;SDS011;65393;53.160;18.170;2023-03-01T03:11:31;32.50;;;11.70;;
76550;SDS011;65393;53.160;18.170;2023-03-01T03:13:59;30.20;;;12.00;;
76550;SDS011;65393;53.160;18.170;2023-03-01T03:16:26;34.50;;;14.10;;
76550;SDS011;65393;53.160;18.170;2023-03-01T03:18:53;31.30;;;12.20;;
76550;SDS011;65393;53.160;18.170;2023-03-01T03:21:19;28.00;;;11.70;;
76550;SDS011;65393;53.160;18.170;2023-03-01T03:23:46;36.00;;;12.80;;
76550;SDS011;65393;53.160;18.170;2023-03-01T03:26:13;32.10;;;13.10;;
76550;SDS011;65393;53.160;18.170;2023-03-01T03:28:41;35.80;;;13.50;;
76550;SDS011;65393;53.160;18.170;2023-03-01T03:31:08;34.70;;;14.00;;
76550;SDS011;65393;53.160;18.170;2023-03-01T03:33:34;40.70;;;14.40;;
76550;SDS011;65393;53.160;18.170;2023-03-01T03:36:02;36.20;;;13.60;;
76550;SDS011;65393;53.160;18.170;2023-03-01T03:38:29;34.90;;;12.70;;
76550;SDS011;65393;53.160;18.170;2023-03-01T03:40:59;38.80;;;14.00;;
76550;SDS011;65393;53.160;18.170;2023-03-01T03:43:31;40.50;;;13.20;;
76550;SDS011;65393;53.160;18.170;2023-03-01T03:46:00;32.70;;;13.10;;
76550;SDS011;65393;53.160;18.170;2023-03-01T03:48:27;35.30;;;13.10;;
76550;SDS011;65393;53.160;18.170;2023-03-01T03:50:55;33.30;;;11.60;;
76550;SDS011;65393;53.160;18.170;2023-03-01T03:53:24;41.50;;;14.10;;
76550;SDS011;65393;53.160;18.170;2023-03-01T03:55:52;32.60;;;12.90;;
76550;SDS011;65393;53.160;18.170;2023-03-01T03:58:20;41.40;;;14.60;;
76550;SDS011;65393;53.160;18.170;2023-03-01T04:00:50;39.50;;;14.70;;
76550;SDS011;65393;53.160;18.170;2023-03-01T04:03:19;37.60;;;14.60;;
76550;SDS011;65393;53.160;18.170;2023-03-01T04:05:46;28.20;;;11.20;;
76550;SDS011;65393;53.160;18.170;2023-03-01T04:08:16;34.70;;;13.80;;
76550;SDS011;65393;53.160;18.170;2023-03-01T04:10:47;36.50;;;14.80;;
76550;SDS011;65393;53.160;18.170;2023-03-01T04:13:16;42.90;;;14.10;;
76550;SDS011;65393;53.160;18.170;2023-03-01T04:15:51;34.90;;;13.20;;
76550;SDS011;65393;53.160;18.170;2023-03-01T04:18:19;32.30;;;12.20;;
76550;SDS011;65393;53.160;18.170;2023-03-01T04:20:49;34.60;;;13.20;;
76550;SDS011;65393;53.160;18.170;2023-03-01T04:23:19;40.40;;;15.20;;
76550;SDS011;65393;53.160;18.170;2023-03-01T04:28:15;36.20;;;13.40;;
76550;SDS011;65393;53.160;18.170;2023-03-01T04:30:42;29.90;;;13.30;;
76550;SDS011;65393;53.160;18.170;2023-03-01T04:33:09;30.20;;;12.70;;
76550;SDS011;65393;53.160;18.170;2023-03-01T04:35:37;33.50;;;13.10;;
76550;SDS011;65393;53.160;18.170;2023-03-01T04:38:05;32.90;;;14.70;;
76550;SDS011;65393;53.160;18.170;2023-03-01T04:40:32;35.20;;;13.00;;
76550;SDS011;65393;53.160;18.170;2023-03-01T04:43:00;33.40;;;12.20;;
76550;SDS011;65393;53.160;18.170;2023-03-01T04:45:28;33.30;;;13.90;;
76550;SDS011;65393;53.160;18.170;2023-03-01T04:47:55;32.80;;;13.20;;
76550;SDS011;65393;53.160;18.170;2023-03-01T04:50:24;31.10;;;12.60;;
76550;SDS011;65393;53.160;18.170;2023-03-01T04:52:52;30.10;;;11.60;;
76550;SDS011;65393;53.160;18.170;2023-03-01T04:55:18;24.40;;;10.50;;
76550;SDS011;65393;53.160;18.170;2023-03-01T04:57:45;33.00;;;11.50;;
76550;SDS011;65393;53.160;18.170;2023-03-01T05:00:13;30.10;;;13.90;;
76550;SDS011;65393;53.160;18.170;2023-03-01T05:02:50;34.30;;;12.80;;
76550;SDS011;65393;53.160;18.170;2023-03-01T05:05:20;24.50;;;9.90;;
76550;SDS011;65393;53.160;18.170;2023-03-01T05:07:56;24.60;;;10.40;;
76550;SDS011;65393;53.160;18.170;2023-03-01T05:10:25;28.70;;;12.00;;
76550;SDS011;65393;53.160;18.170;2023-03-01T05:12:52;29.70;;;10.30;;
76550;SDS011;65393;53.160;18.170;2023-03-01T05:15:20;30.10;;;11.90;;
76550;SDS011;65393;53.160;18.170;2023-03-01T05:17:48;27.10;;;10.60;;
76550;SDS011;65393;53.160;18.170;2023-03-01T05:20:15;35.40;;;13.10;;
76550;SDS011;65393;53.160;18.170;2023-03-01T05:22:42;26.70;;;10.10;;
76550;SDS011;65393;53.160;18.170;2023-03-01T05:25:09;26.00;;;11.60;;
76550;SDS011;65393;53.160;18.170;2023-03-01T05:27:36;32.60;;;13.50;;
76550;SDS011;65393;53.160;18.170;2023-03-01T05:30:03;32.60;;;12.40;;
76550;SDS011;65393;53.160;18.170;2023-03-01T05:32:43;31.40;;;12.80;;
76550;SDS011;65393;53.160;18.170;2023-03-01T05:35:16;30.50;;;11.60;;
76550;SDS011;65393;53.160;18.170;2023-03-01T05:37:45;38.30;;;13.90;;
76550;SDS011;65393;53.160;18.170;2023-03-01T05:40:17;28.20;;;12.00;;
76550;SDS011;65393;53.160;18.170;2023-03-01T05:42:55;29.50;;;12.00;;
76550;SDS011;65393;53.160;18.170;2023-03-01T05:45:24;33.30;;;12.60;;
76550;SDS011;65393;53.160;18.170;2023-03-01T05:47:51;35.20;;;13.50;;
76550;SDS011;65393;53.160;18.170;2023-03-01T05:50:22;31.80;;;13.70;;
76550;SDS011;65393;53.160;18.170;2023-03-01T05:52:54;24.90;;;9.20;;
76550;SDS011;65393;53.160;18.170;2023-03-01T05:55:27;22.50;;;10.10;;
76550;SDS011;65393;53.160;18.170;2023-03-01T05:57:59;36.10;;;13.30;;
76550;SDS011;65393;53.160;18.170;2023-03-01T06:00:30;31.80;;;11.10;;
76550;SDS011;65393;53.160;18.170;2023-03-01T06:02:58;32.40;;;12.10;;
76550;SDS011;65393;53.160;18.170;2023-03-01T06:05:26;34.70;;;12.10;;
76550;SDS011;65393;53.160;18.170;2023-03-01T06:07:53;28.80;;;11.60;;
76550;SDS011;65393;53.160;18.170;2023-03-01T06:10:21;29.60;;;12.20;;
76550;SDS011;65393;53.160;18.170;2023-03-01T06:12:48;32.70;;;11.90;;
76550;SDS011;65393;53.160;18.170;2023-03-01T06:15:15;25.50;;;10.30;;
76550;SDS011;65393;53.160;18.170;2023-03-01T06:17:44;32.00;;;12.10;;
76550;SDS011;65393;53.160;18.170;2023-03-01T06:20:13;26.20;;;10.90;;
76550;SDS011;65393;53.160;18.170;2023-03-01T06:22:45;29.30;;;11.50;;
76550;SDS011;65393;53.160;18.170;2023-03-01T06:25:13;31.10;;;12.50;;
76550;SDS011;65393;53.160;18.170;2023-03-01T06:27:42;32.10;;;13.80;;
76550;SDS011;65393;53.160;18.170;2023-03-01T06:30:10;32.20;;;13.80;;
76550;SDS011;65393;53.160;18.170;2023-03-01T06:32:38;30.50;;;12.30;;
76550;SDS011;65393;53.160;18.170;2023-03-01T06:35:11;31.70;;;12.60;;
76550;SDS011;65393;53.160;18.170;2023-03-01T06:40:07;23.30;;;9.20;;
76550;SDS011;65393;53.160;18.170;2023-03-01T06:42:35;22.00;;;8.50;;
76550;SDS011;65393;53.160;18.170;2023-03-01T06:45:02;24.90;;;10.30;;
76550;SDS011;65393;53.160;18.170;2023-03-01T06:47:30;26.50;;;11.10;;
76550;SDS011;65393;53.160;18.170;2023-03-01T06:50:00;26.70;;;11.40;;
76550;SDS011;65393;53.160;18.170;2023-03-01T06:52:27;27.30;;;11.00;;
76550;SDS011;65393;53.160;18.170;2023-03-01T06:54:54;32.40;;;13.70;;
76550;SDS011;65393;53.160;18.170;2023-03-01T06:57:21;31.90;;;12.70;;
76550;SDS011;65393;53.160;18.170;2023-03-01T06:59:47;36.10;;;12.10;;
76550;SDS011;65393;53.160;18.170;2023-03-01T07:02:14;30.00;;;12.20;;
76550;SDS011;65393;53.160;18.170;2023-03-01T07:04:41;30.30;;;12.60;;
76550;SDS011;65393;53.160;18.170;2023-03-01T07:07:09;29.50;;;11.50;;
76550;SDS011;65393;53.160;18.170;2023-03-01T07:09:36;23.20;;;9.20;;
76550;SDS011;65393;53.160;18.170;2023-03-01T07:12:03;30.60;;;11.70;;
76550;SDS011;65393;53.160;18.170;2023-03-01T07:14:30;33.80;;;13.00;;
76550;SDS011;65393;53.160;18.170;2023-03-01T07:16:57;26.40;;;9.10;;
76550;SDS011;65393;53.160;18.170;2023-03-01T07:19:24;30.30;;;12.90;;
76550;SDS011;65393;53.160;18.170;2023-03-01T07:21:51;25.70;;;11.10;;
76550;SDS011;65393;53.160;18.170;2023-03-01T07:24:17;26.90;;;11.10;;
76550;SDS011;65393;53.160;18.170;2023-03-01T07:26:47;24.80;;;9.60;;
76550;SDS011;65393;53.160;18.170;2023-03-01T07:29:15;22.90;;;9.30;;
76550;SDS011;65393;53.160;18.170;2023-03-01T07:31:42;28.20;;;11.30;;
76550;SDS011;65393;53.160;18.170;2023-03-01T07:34:09;24.40;;;9.90;;
76550;SDS011;65393;53.160;18.170;2023-03-01T07:36:37;26.10;;;10.00;;
76550;SDS011;65393;53.160;18.170;2023-03-01T07:39:05;23.80;;;9.50;;
76550;SDS011;65393;53.160;18.170;2023-03-01T07:41:33;31.50;;;10.50;;
76550;SDS011;65393;53.160;18.170;2023-03-01T07:43:59;23.30;;;9.60;;
76550;SDS011;65393;53.160;18.170;2023-03-01T07:46:26;27.30;;;11.00;;
76550;SDS011;65393;53.160;18.170;2023-03-01T07:48:53;28.60;;;11.80;;
76550;SDS011;65393;53.160;18.170;2023-03-01T07:51:20;25.90;;;10.40;;
76550;SDS011;65393;53.160;18.170;2023-03-01T07:53:47;23.20;;;8.60;;
76550;SDS011;65393;53.160;18.170;2023-03-01T07:56:15;24.20;;;10.10;;
76550;SDS011;65393;53.160;18.170;2023-03-01T07:58:44;26.30;;;10.60;;
76550;SDS011;65393;53.160;18.170;2023-03-01T08:01:12;32.00;;;11.60;;
76550;SDS011;65393;53.160;18.170;2023-03-01T08:03:41;29.20;;;11.10;;
76550;SDS011;65393;53.160;18.170;2023-03-01T08:06:10;20.60;;;8.70;;
76550;SDS011;65393;53.160;18.170;2023-03-01T08:08:38;30.10;;;11.90;;
76550;SDS011;65393;53.160;18.170;2023-03-01T08:11:06;27.50;;;11.00;;
76550;SDS011;65393;53.160;18.170;2023-03-01T08:13:34;28.40;;;10.90;;
76550;SDS011;65393;53.160;18.170;2023-03-01T08:16:04;26.40;;;11.30;;
76550;SDS011;65393;53.160;18.170;2023-03-01T08:18:33;21.80;;;10.00;;
76550;SDS011;65393;53.160;18.170;2023-03-01T08:21:04;24.50;;;10.30;;
76550;SDS011;65393;53.160;18.170;2023-03-01T08:23:36;22.80;;;9.20;;
76550;SDS011;65393;53.160;18.170;2023-03-01T08:28:41;17.90;;;8.00;;
76550;SDS011;65393;53.160;18.170;2023-03-01T08:31:19;23.10;;;9.20;;
76550;SDS011;65393;53.160;18.170;2023-03-01T08:33:48;24.00;;;9.30;;
76550;SDS011;65393;53.160;18.170;2023-03-01T08:36:25;25.00;;;9.80;;
76550;SDS011;65393;53.160;18.170;2023-03-01T08:38:57;24.00;;;10.60;;
76550;SDS011;65393;53.160;18.170;2023-03-01T08:41:24;25.20;;;10.60;;
76550;SDS011;65393;53.160;18.170;2023-03-01T08:43:51;28.30;;;9.80;;
76550;SDS011;65393;53.160;18.170;2023-03-01T08:46:19;24.90;;;10.50;;
76550;SDS011;65393;53.160;18.170;2023-03-01T08:48:45;22.90;;;9.40;;
76550;SDS011;65393;53.160;18.170;2023-03-01T08:51:16;18.40;;;7.80;;
76550;SDS011;65393;53.160;18.170;2023-03-01T08:56:10;17.50;;;7.80;;
76550;SDS011;65393;53.160;18.170;2023-03-01T08:58:38;23.00;;;9.40;;
76550;SDS011;65393;53.160;18.170;2023-03-01T09:01:08;20.60;;;8.70;;
76550;SDS011;65393;53.160;18.170;2023-03-01T09:03:37;22.50;;;9.40;;
76550;SDS011;65393;53.160;18.170;2023-03-01T09:06:04;17.80;;;8.10;;
76550;SDS011;65393;53.160;18.170;2023-03-01T09:08:34;18.40;;;7.90;;
76550;SDS011;65393;53.160;18.170;2023-03-01T09:11:03;20.80;;;8.50;;
76550;SDS011;65393;53.160;18.170;2023-03-01T09:13:31;18.50;;;8.60;;
76550;SDS011;65393;53.160;18.170;2023-03-01T09:15:58;19.70;;;10.10;;
76550;SDS011;65393;53.160;18.170;2023-03-01T09:18:28;19.70;;;9.00;;
76550;SDS011;65393;53.160;18.170;2023-03-01T09:21:02;17.90;;;8.80;;
76550;SDS011;65393;53.160;18.170;2023-03-01T09:23:28;20.40;;;9.00;;
76550;SDS011;65393;53.160;18.170;2023-03-01T09:25:55;18.90;;;9.10;;
76550;SDS011;65393;53.160;18.170;2023-03-01T09:28:22;13.70;;;7.40;;
76550;SDS011;65393;53.160;18.170;2023-03-01T09:30:49;22.90;;;8.40;;
76550;SDS011;65393;53.160;18.170;2023-03-01T09:33:16;20.70;;;9.20;;
76550;SDS011;65393;53.160;18.170;2023-03-01T09:35:43;14.00;;;7.00;;
76550;SDS011;65393;53.160;18.170;2023-03-01T09:38:13;16.50;;;6.80;;
76550;SDS011;65393;53.160;18.170;2023-03-01T09:40:43;17.30;;;8.30;;
76550;SDS011;65393;53.160;18.170;2023-03-01T09:43:15;20.10;;;8.10;;
76550;SDS011;65393;53.160;18.170;2023-03-01T09:45:49;17.70;;;8.80;;
76550;SDS011;65393;53.160;18.170;2023-03-01T09:50:53;17.30;;;7.90;;
76550;SDS011;65393;53.160;18.170;2023-03-01T09:53:21;17.20;;;7.40;;
76550;SDS011;65393;53.160;18.170;2023-03-01T09:55:59;20.80;;;8.20;;
76550;SDS011;65393;53.160;18.170;2023-03-01T10:04:04;15.20;;;6.00;;
76550;SDS011;65393;53.160;18.170;2023-03-01T10:06:45;14.70;;;6.10;;
76550;SDS011;65393;53.160;18.170;2023-03-01T10:09:23;16.80;;;7.30;;
76550;SDS011;65393;53.160;18.170;2023-03-01T10:11:51;14.70;;;7.10;;
76550;SDS011;65393;53.160;18.170;2023-03-01T10:17:17;13.50;;;6.60;;
76550;SDS011;65393;53.160;18.170;2023-03-01T10:19:46;16.70;;;7.00;;
76550;SDS011;65393;53.160;18.170;2023-03-01T10:22:15;13.10;;;5.80;;
76550;SDS011;65393;53.160;18.170;2023-03-01T10:24:47;13.20;;;5.30;;
76550;SDS011;65393;53.160;18.170;2023-03-01T10:32:49;15.20;;;7.00;;
76550;SDS011;65393;53.160;18.170;2023-03-01T10:35:20;11.80;;;6.80;;
76550;SDS011;65393;53.160;18.170;2023-03-01T10:38:08;13.90;;;6.90;;
76550;SDS011;65393;53.160;18.170;2023-03-01T10:40:49;12.50;;;6.40;;
76550;SDS011;65393;53.160;18.170;2023-03-01T10:43:16;12.30;;;5.80;;
76550;SDS011;65393;53.160;18.170;2023-03-01T10:45:43;13.40;;;6.10;;
76550;SDS011;65393;53.160;18.170;2023-03-01T10:48:12;13.40;;;6.50;;
76550;SDS011;65393;53.160;18.170;2023-03-01T10:53:29;11.60;;;5.90;;
76550;SDS011;65393;53.160;18.170;2023-03-01T10:56:01;10.80;;;4.80;;
76550;SDS011;65393;53.160;18.170;2023-03-01T10:58:29;9.70;;;4.80;;
76550;SDS011;65393;53.160;18.170;2023-03-01T11:00:58;11.50;;;5.30;;
76550;SDS011;65393;53.160;18.170;2023-03-01T11:03:45;13.90;;;6.20;;
76550;SDS011;65393;53.160;18.170;2023-03-01T11:06:32;10.50;;;5.10;;
76550;SDS011;65393;53.160;18.170;2023-03-01T11:09:13;9.30;;;4.10;;
76550;SDS011;65393;53.160;18.170;2023-03-01T11:11:51;8.40;;;4.20;;
76550;SDS011;65393;53.160;18.170;2023-03-01T11:14:23;11.00;;;4.90;;
76550;SDS011;65393;53.160;18.170;2023-03-01T11:17:04;7.60;;;4.50;;
76550;SDS011;65393;53.160;18.170;2023-03-01T11:20:00;8.60;;;3.90;;
76550;SDS011;65393;53.160;18.170;2023-03-01T11:22:27;9.60;;;4.20;;
76550;SDS011;65393;53.160;18.170;2023-03-01T11:24:55;8.80;;;4.40;;
76550;SDS011;65393;53.160;18.170;2023-03-01T11:27:25;5.50;;;3.30;;
76550;SDS011;65393;53.160;18.170;2023-03-01T11:29:56;9.90;;;4.20;;
76550;SDS011;65393;53.160;18.170;2023-03-01T11:32:38;8.90;;;4.30;;
76550;SDS011;65393;53.160;18.170;2023-03-01T11:35:17;9.00;;;4.70;;
76550;SDS011;65393;53.160;18.170;2023-03-01T11:40:27;8.10;;;3.60;;
76550;SDS011;65393;53.160;18.170;2023-03-01T11:43:18;9.30;;;4.50;;
76550;SDS011;65393;53.160;18.170;2023-03-01T11:48:40;9.20;;;4.10;;
76550;SDS011;65393;53.160;18.170;2023-03-01T11:57:16;11.40;;;5.10;;
76550;SDS011;65393;53.160;18.170;2023-03-01T12:17:02;14.10;;;6.40;;
76550;SDS011;65393;53.160;18.170;2023-03-01T12:27:51;15.80;;;6.40;;
76550;SDS011;65393;53.160;18.170;2023-03-01T12:55:27;15.70;;;7.60;;
76550;SDS011;65393;53.160;18.170;2023-03-01T13:00:41;13.40;;;5.60;;
76550;SDS011;65393;53.160;18.170;2023-03-01T13:03:35;12.90;;;5.90;;
76550;SDS011;65393;53.160;18.170;2023-03-01T13:06:44;12.40;;;6.60;;
76550;SDS011;65393;53.160;18.170;2023-03-01T13:11:36;16.00;;;7.80;;
76550;SDS011;65393;53.160;18.170;2023-03-01T13:16:46;15.40;;;6.40;;
76550;SDS011;65393;53.160;18.170;2023-03-01T13:19:16;16.70;;;7.10;;
76550;SDS011;65393;53.160;18.170;2023-03-01T13:21:44;16.80;;;7.10;;
76550;SDS011;65393;53.160;18.170;2023-03-01T13:29:47;12.00;;;5.50;;
76550;SDS011;65393;53.160;18.170;2023-03-01T13:32:27;14.30;;;6.70;;
76550;SDS011;65393;53.160;18.170;2023-03-01T13:34:59;15.80;;;6.90;;
76550;SDS011;65393;53.160;18.170;2023-03-01T13:37:28;16.20;;;6.10;;
76550;SDS011;65393;53.160;18.170;2023-03-01T13:39:58;16.50;;;6.80;;
76550;SDS011;65393;53.160;18.170;2023-03-01T13:42:35;12.80;;;6.40;;
76550;SDS011;65393;53.160;18.170;2023-03-01T13:45:15;13.90;;;6.50;;
76550;SDS011;65393;53.160;18.170;2023-03-01T13:47:42;13.00;;;6.60;;
76550;SDS011;65393;53.160;18.170;2023-03-01T13:50:20;12.20;;;5.80;;
76550;SDS011;65393;53.160;18.170;2023-03-01T13:52:55;10.60;;;5.70;;
76550;SDS011;65393;53.160;18.170;2023-03-01T13:55:34;11.10;;;5.50;;
76550;SDS011;65393;53.160;18.170;2023-03-01T13:58:13;14.90;;;5.70;;
76550;SDS011;65393;53.160;18.170;2023-03-01T14:00:46;11.40;;;5.90;;
76550;SDS011;65393;53.160;18.170;2023-03-01T14:08:34;11.10;;;5.30;;
76550;SDS011;65393;53.160;18.170;2023-03-01T14:17:36;11.80;;;5.20;;
76550;SDS011;65393;53.160;18.170;2023-03-01T14:19:34;14.00;;;6.50;;
76550;SDS011;65393;53.160;18.170;2023-03-01T14:22:07;12.50;;;6.10;;
76550;SDS011;65393;53.160;18.170;2023-03-01T14:24:51;13.50;;;5.60;;
76550;SDS011;65393;53.160;18.170;2023-03-01T14:27:22;15.20;;;6.00;;
76550;SDS011;65393;53.160;18.170;2023-03-01T14:30:26;12.10;;;5.80;;
76550;SDS011;65393;53.160;18.170;2023-03-01T14:32:59;11.50;;;5.20;;
76550;SDS011;65393;53.160;18.170;2023-03-01T14:35:29;13.90;;;5.90;;
76550;SDS011;65393;53.160;18.170;2023-03-01T14:37:57;12.20;;;6.20;;
76550;SDS011;65393;53.160;18.170;2023-03-01T14:42:53;14.50;;;6.60;;
76550;SDS011;65393;53.160;18.170;2023-03-01T14:45:24;14.30;;;7.00;;
76550;SDS011;65393;53.160;18.170;2023-03-01T14:47:53;16.90;;;7.60;;
76550;SDS011;65393;53.160;18.170;2023-03-01T14:50:26;16.20;;;7.60;;
76550;SDS011;65393;53.160;18.170;2023-03-01T14:52:56;17.50;;;7.00;;
76550;SDS011;65393;53.160;18.170;2023-03-01T14:55:33;13.70;;;7.50;;
76550;SDS011;65393;53.160;18.170;2023-03-01T14:58:03;18.70;;;7.50;;
76550;SDS011;65393;53.160;18.170;2023-03-01T15:00:32;16.00;;;7.40;;
76550;SDS011;65393;53.160;18.170;2023-03-01T15:03:04;13.10;;;7.10;;
76550;SDS011;65393;53.160;18.170;2023-03-01T15:05:40;14.20;;;7.30;;
76550;SDS011;65393;53.160;18.170;2023-03-01T15:08:15;11.90;;;4.80;;
76550;SDS011;65393;53.160;18.170;2023-03-01T15:13:34;11.70;;;5.90;;
76550;SDS011;65393;53.160;18.170;2023-03-01T15:16:02;12.80;;;5.50;;
76550;SDS011;65393;53.160;18.170;2023-03-01T15:18:35;17.40;;;7.30;;
76550;SDS011;65393;53.160;18.170;2023-03-01T15:21:07;14.60;;;6.40;;
76550;SDS011;65393;53.160;18.170;2023-03-01T15:23:41;13.70;;;6.40;;
76550;SDS011;65393;53.160;18.170;2023-03-01T15:26:18;13.10;;;5.30;;
76550;SDS011;65393;53.160;18.170;2023-03-01T15:28:50;13.90;;;6.60;;
76550;SDS011;65393;53.160;18.170;2023-03-01T15:33:45;14.10;;;5.90;;
76550;SDS011;65393;53.160;18.170;2023-03-01T15:39:31;10.90;;;5.10;;
76550;SDS011;65393;53.160;18.170;2023-03-01T15:42:13;12.50;;;5.90;;
76550;SDS011;65393;53.160;18.170;2023-03-01T15:45:21;11.80;;;5.10;;
76550;SDS011;65393;53.160;18.170;2023-03-01T15:47:50;11.70;;;5.00;;
76550;SDS011;65393;53.160;18.170;2023-03-01T15:50:30;9.30;;;4.40;;
76550;SDS011;65393;53.160;18.170;2023-03-01T15:53:00;8.70;;;4.60;;
76550;SDS011;65393;53.160;18.170;2023-03-01T15:55:30;13.80;;;5.40;;
76550;SDS011;65393;53.160;18.170;2023-03-01T15:58:04;12.50;;;5.50;;
76550;SDS011;65393;53.160;18.170;2023-03-01T16:00:37;8.90;;;5.10;;
76550;SDS011;65393;53.160;18.170;2023-03-01T16:03:04;10.10;;;4.80;;
76550;SDS011;65393;53.160;18.170;2023-03-01T16:05:32;10.40;;;4.70;;
76550;SDS011;65393;53.160;18.170;2023-03-01T16:08:02;10.00;;;5.20;;
76550;SDS011;65393;53.160;18.170;2023-03-01T16:10:33;9.30;;;4.40;;
76550;SDS011;65393;53.160;18.170;2023-03-01T16:13:02;10.20;;;5.40;;
76550;SDS011;65393;53.160;18.170;2023-03-01T16:15:32;12.20;;;5.50;;
76550;SDS011;65393;53.160;18.170;2023-03-01T16:18:04;12.80;;;5.20;;
76550;SDS011;65393;53.160;18.170;2023-03-01T16:20:36;11.50;;;5.10;;
76550;SDS011;65393;53.160;18.170;2023-03-01T16:23:04;12.00;;;5.80;;
76550;SDS011;65393;53.160;18.170;2023-03-01T16:25:33;10.70;;;5.10;;
76550;SDS011;65393;53.160;18.170;2023-03-01T16:28:01;10.10;;;5.20;;
76550;SDS011;65393;53.160;18.170;2023-03-01T16:30:34;16.00;;;5.70;;
76550;SDS011;65393;53.160;18.170;2023-03-01T16:33:02;16.20;;;4.80;;
76550;SDS011;65393;53.160;18.170;2023-03-01T16:35:28;19.00;;;6.10;;
76550;SDS011;65393;53.160;18.170;2023-03-01T16:37:55;13.70;;;5.90;;
76550;SDS011;65393;53.160;18.170;2023-03-01T16:40:24;17.20;;;6.00;;
76550;SDS011;65393;53.160;18.170;2023-03-01T16:42:53;17.00;;;6.90;;
76550;SDS011;65393;53.160;18.170;2023-03-01T16:45:26;14.10;;;6.40;;
76550;SDS011;65393;53.160;18.170;2023-03-01T16:47:54;14.70;;;6.30;;
76550;SDS011;65393;53.160;18.170;2023-03-01T16:50:21;12.90;;;5.80;;
76550;SDS011;65393;53.160;18.170;2023-03-01T16:52:48;11.70;;;5.60;;
76550;SDS011;65393;53.160;18.170;2023-03-01T16:55:16;14.20;;;5.50;;